Time;durP1;ratioP1;P1;durP2;ratioP2;P2;SDS_P1;SDS_P2;PMS_P1;PMS_P2;Temp;Humidity;BMP_temperature;BMP_pressure;BME280_temperature;BME280_humidity;BME280_pressure;Samples;Min_cycle;Max_cycle;Signal;HPM_P1;HPM_P2
2023/06/05 00:01:26;;;;;;;12.77;12.07;;;;;;;;;;4990923;28;20532;-66
2023/06/05 00:03:53;;;;;;;12.15;11.55;;;;;;;;;;4991157;28;20035;-66
2023/06/05 00:06:18;;;;;;;12.85;12.18;;;;;;;;;;4987747;28;20014;-66
2023/06/05 00:08:43;;;;;;;13.00;12.30;;;;;;;;;;4993152;28;20371;-66
2023/06/05 00:11:09;;;;;;;12.10;11.50;;;;;;;;;;4989063;28;20022;-66
2023/06/05 00:13:34;;;;;;;12.30;11.70;;;;;;;;;;4994957;28;20697;-67
2023/06/05 00:16:02;;;;;;;12.93;12.23;;;;;;;;;;4994414;28;20022;-66
2023/06/05 00:18:28;;;;;;;13.43;12.73;;;;;;;;;;4989330;28;20077;-66
2023/06/05 00:20:53;;;;;;;14.10;13.30;;;;;;;;;;4984548;28;20039;-65
2023/06/05 00:23:19;;;;;;;13.85;13.05;;;;;;;;;;4984584;28;20068;-66
2023/06/05 00:25:44;;;;;;;13.25;12.55;;;;;;;;;;4984051;28;20080;-66
2023/06/05 00:28:11;;;;;;;12.88;12.18;;;;;;;;;;4987566;28;20058;-66
2023/06/05 00:30:37;;;;;;;13.20;12.50;;;;;;;;;;4982377;28;20043;-66
2023/06/05 00:33:02;;;;;;;12.98;12.27;;;;;;;;;;4985531;28;20516;-66
2023/06/05 00:35:27;;;;;;;12.73;12.05;;;;;;;;;;4984557;28;20096;-66
2023/06/05 00:37:53;;;;;;;12.63;12.02;;;;;;;;;;4981430;28;20125;-66
2023/06/05 00:40:18;;;;;;;13.95;13.15;;;;;;;;;;4982463;28;21549;-67
2023/06/05 00:42:43;;;;;;;13.43;12.73;;;;;;;;;;4983662;28;20472;-67
2023/06/05 00:45:09;;;;;;;13.52;12.82;;;;;;;;;;4988786;28;20027;-68
2023/06/05 00:47:35;;;;;;;13.95;13.15;;;;;;;;;;4985196;28;20401;-68
2023/06/05 00:50:00;;;;;;;13.20;12.50;;;;;;;;;;4984327;28;20054;-67
2023/06/05 00:52:29;;;;;;;13.10;12.40;;;;;;;;;;4984944;28;20054;-67
2023/06/05 00:54:54;;;;;;;12.65;12.05;;;;;;;;;;4993163;28;20093;-66
2023/06/05 00:57:20;;;;;;;13.00;12.30;;;;;;;;;;4993727;28;20046;-66
2023/06/05 00:59:45;;;;;;;12.38;11.77;;;;;;;;;;4988979;28;20453;-66
2023/06/05 01:02:12;;;;;;;12.38;11.77;;;;;;;;;;4992131;28;20026;-65
2023/06/05 01:04:40;;;;;;;12.43;11.82;;;;;;;;;;4979998;28;20390;-65
2023/06/05 01:07:05;;;;;;;12.43;11.82;;;;;;;;;;4989238;28;20081;-66
2023/06/05 01:09:31;;;;;;;12.10;11.50;;;;;;;;;;4984762;28;20492;-67
2023/06/05 01:12:02;;;;;;;12.88;12.18;;;;;;;;;;4991555;28;20024;-67
2023/06/05 01:14:30;;;;;;;12.90;12.20;;;;;;;;;;4987469;28;20023;-66
2023/06/05 01:16:56;;;;;;;13.02;12.32;;;;;;;;;;4989074;28;20062;-65
2023/06/05 01:19:24;;;;;;;12.95;12.27;;;;;;;;;;4997012;28;20073;-66
2023/06/05 01:21:50;;;;;;;13.07;12.38;;;;;;;;;;4991411;28;20034;-65
2023/06/05 01:24:15;;;;;;;13.60;12.90;;;;;;;;;;4988775;28;20085;-66
2023/06/05 01:26:52;;;;;;;14.48;13.68;;;;;;;;;;4987383;28;20033;-65
2023/06/05 01:29:20;;;;;;;13.50;12.77;;;;;;;;;;4986550;28;20077;-65
2023/06/05 01:31:46;;;;;;;13.82;13.02;;;;;;;;;;4989454;28;20540;-66
2023/06/05 01:34:15;;;;;;;13.35;12.65;;;;;;;;;;4986574;28;20031;-66
2023/06/05 01:36:41;;;;;;;13.68;12.95;;;;;;;;;;4984958;28;20026;-66
2023/06/05 01:39:07;;;;;;;13.70;12.95;;;;;;;;;;4983958;28;20037;-67
2023/06/05 01:41:32;;;;;;;13.38;12.68;;;;;;;;;;4984901;28;20504;-67
2023/06/05 01:43:58;;;;;;;14.18;13.38;;;;;;;;;;4983340;28;20022;-67
2023/06/05 01:46:24;;;;;;;13.93;13.13;;;;;;;;;;4987157;28;20065;-66
2023/06/05 01:48:51;;;;;;;13.27;12.57;;;;;;;;;;4985923;28;20046;-66
2023/06/05 01:51:16;;;;;;;13.73;12.98;;;;;;;;;;4982990;28;20022;-66
2023/06/05 01:53:41;;;;;;;13.23;12.52;;;;;;;;;;4988948;28;20504;-66
2023/06/05 01:56:08;;;;;;;13.07;12.38;;;;;;;;;;4993621;28;20454;-65
2023/06/05 01:58:33;;;;;;;12.93;12.23;;;;;;;;;;4988126;28;20066;-67
2023/06/05 02:00:58;;;;;;;12.52;11.93;;;;;;;;;;4992632;28;20081;-67
2023/06/05 02:03:24;;;;;;;13.18;12.48;;;;;;;;;;4986418;28;20053;-69
2023/06/05 02:05:51;;;;;;;12.98;12.27;;;;;;;;;;4991783;28;20508;-67
2023/06/05 02:08:19;;;;;;;13.48;12.77;;;;;;;;;;4987485;28;20049;-66
2023/06/05 02:10:47;;;;;;;12.75;12.13;;;;;;;;;;4990227;28;20086;-66
2023/06/05 02:13:15;;;;;;;12.57;11.98;;;;;;;;;;4989251;28;20046;-66
2023/06/05 02:15:41;;;;;;;12.95;12.27;;;;;;;;;;4991214;28;20377;-67
2023/06/05 02:18:07;;;;;;;12.13;11.52;;;;;;;;;;4990299;28;20484;-66
2023/06/05 02:20:34;;;;;;;11.60;11.10;;;;;;;;;;4990934;28;20109;-65
2023/06/05 02:23:00;;;;;;;12.68;12.02;;;;;;;;;;4986449;28;20047;-66
2023/06/05 02:25:28;;;;;;;12.73;12.13;;;;;;;;;;4988135;28;20026;-66
2023/06/05 02:27:54;;;;;;;12.13;11.52;;;;;;;;;;4984980;28;20022;-66
2023/06/05 02:30:20;;;;;;;12.73;12.02;;;;;;;;;;4993180;28;20552;-66
2023/06/05 02:32:45;;;;;;;12.48;11.88;;;;;;;;;;4988384;28;20484;-67
2023/06/05 02:35:11;;;;;;;13.85;13.05;;;;;;;;;;4984065;28;20058;-66
2023/06/05 02:37:43;;;;;;;14.32;13.48;;;;;;;;;;4981636;28;20109;-66
2023/06/05 02:40:09;;;;;;;13.43;12.65;;;;;;;;;;4985616;28;20022;-66
2023/06/05 02:42:35;;;;;;;12.80;12.10;;;;;;;;;;4983177;28;20038;-66
2023/06/05 02:45:00;;;;;;;12.77;12.07;;;;;;;;;;4986503;28;20497;-66
2023/06/05 02:47:26;;;;;;;13.50;12.75;;;;;;;;;;4981749;28;20045;-66
2023/06/05 02:49:51;;;;;;;13.60;12.85;;;;;;;;;;4982136;28;20030;-66
2023/06/05 02:52:17;;;;;;;13.35;12.65;;;;;;;;;;4983430;28;20500;-67
2023/06/05 02:54:43;;;;;;;12.35;11.75;;;;;;;;;;4982660;28;20043;-66
2023/06/05 02:57:08;;;;;;;12.93;12.23;;;;;;;;;;4983936;28;20072;-66
2023/06/05 02:59:39;;;;;;;12.40;11.80;;;;;;;;;;4981148;28;20026;-68
2023/06/05 03:02:04;;;;;;;12.70;12.07;;;;;;;;;;4980770;28;20485;-66
2023/06/05 03:04:30;;;;;;;12.93;12.23;;;;;;;;;;4977516;28;20034;-66
2023/06/05 03:06:56;;;;;;;14.40;13.55;;;;;;;;;;4978164;28;20027;-66
2023/06/05 03:09:22;;;;;;;13.77;12.98;;;;;;;;;;4980712;28;20125;-66
2023/06/05 03:11:47;;;;;;;13.68;12.90;;;;;;;;;;4979812;28;20113;-65
2023/06/05 03:14:12;;;;;;;13.98;13.18;;;;;;;;;;4977841;28;20469;-66
2023/06/05 03:16:41;;;;;;;13.57;12.85;;;;;;;;;;4984472;28;20023;-65
2023/06/05 03:19:10;;;;;;;12.90;12.20;;;;;;;;;;4987888;28;20037;-66
2023/06/05 03:21:37;;;;;;;12.55;11.95;;;;;;;;;;4989205;28;20027;-66
2023/06/05 03:24:03;;;;;;;12.15;11.55;;;;;;;;;;4989781;28;20074;-66
2023/06/05 03:26:29;;;;;;;12.52;11.93;;;;;;;;;;4986483;28;20014;-67
2023/06/05 03:28:54;;;;;;;12.07;11.48;;;;;;;;;;4987055;28;20021;-66
2023/06/05 03:31:19;;;;;;;12.90;12.30;;;;;;;;;;4989161;28;20022;-66
2023/06/05 03:33:45;;;;;;;12.25;11.65;;;;;;;;;;4987016;28;20030;-67
2023/06/05 03:36:10;;;;;;;13.07;12.48;;;;;;;;;;4987536;28;20030;-67
2023/06/05 03:38:36;;;;;;;11.85;11.35;;;;;;;;;;4981957;28;20011;-67
2023/06/05 03:41:01;;;;;;;12.40;11.80;;;;;;;;;;4982529;28;20023;-67
2023/06/05 03:43:26;;;;;;;12.63;12.02;;;;;;;;;;4980120;28;20109;-68
2023/06/05 03:45:53;;;;;;;12.95;12.35;;;;;;;;;;4983590;28;20026;-67
2023/06/05 03:48:21;;;;;;;12.32;11.73;;;;;;;;;;4983274;28;20577;-67
2023/06/05 03:50:47;;;;;;;13.80;13.10;;;;;;;;;;4981271;28;20105;-67
2023/06/05 03:53:13;;;;;;;13.57;12.88;;;;;;;;;;4978070;28;20490;-67
2023/06/05 03:55:44;;;;;;;12.27;11.68;;;;;;;;;;4980200;28;20085;-66
2023/06/05 03:58:16;;;;;;;13.32;12.73;;;;;;;;;;4978251;28;20429;-67
2023/06/05 04:00:42;;;;;;;13.30;12.70;;;;;;;;;;4977672;28;20030;-67
2023/06/05 04:03:09;;;;;;;13.40;12.77;;;;;;;;;;4975106;28;20366;-67
2023/06/05 04:05:35;;;;;;;12.40;11.80;;;;;;;;;;4983107;28;20057;-68
2023/06/05 04:08:00;;;;;;;13.32;12.73;;;;;;;;;;4985031;28;20014;-66
2023/06/05 04:10:25;;;;;;;13.02;12.43;;;;;;;;;;4980863;28;20044;-66
2023/06/05 04:12:51;;;;;;;12.35;11.75;;;;;;;;;;4988094;28;20095;-66
2023/06/05 04:15:16;;;;;;;14.07;13.38;;;;;;;;;;4976398;28;20401;-67
2023/06/05 04:17:41;;;;;;;13.50;12.80;;;;;;;;;;4986849;28;20034;-66
2023/06/05 04:20:13;;;;;;;12.18;11.57;;;;;;;;;;4983620;28;20427;-66
2023/06/05 04:22:39;;;;;;;12.77;12.18;;;;;;;;;;4984725;28;20015;-66
2023/06/05 04:25:04;;;;;;;13.88;13.18;;;;;;;;;;4984512;28;20153;-65
2023/06/05 04:27:30;;;;;;;12.95;12.35;;;;;;;;;;4980323;28;20014;-65
2023/06/05 04:29:56;;;;;;;12.73;12.13;;;;;;;;;;4981222;28;20037;-67
2023/06/05 04:32:21;;;;;;;12.75;12.15;;;;;;;;;;4984288;28;20022;-66
2023/06/05 04:34:47;;;;;;;12.93;12.32;;;;;;;;;;4986612;28;20383;-65
2023/06/05 04:37:13;;;;;;;13.85;13.15;;;;;;;;;;4989770;28;20030;-65
2023/06/05 04:39:38;;;;;;;12.23;11.63;;;;;;;;;;4991832;28;20085;-66
2023/06/05 04:42:03;;;;;;;12.68;12.07;;;;;;;;;;4980831;28;20026;-66
2023/06/05 04:44:29;;;;;;;13.02;12.43;;;;;;;;;;4985328;28;20404;-66
2023/06/05 04:46:54;;;;;;;13.68;13.00;;;;;;;;;;4986862;28;20034;-62
2023/06/05 04:49:22;;;;;;;12.95;12.35;;;;;;;;;;4987638;28;20394;-63
2023/06/05 04:51:48;;;;;;;12.82;12.23;;;;;;;;;;4992044;28;20023;-63
2023/06/05 04:54:13;;;;;;;12.02;11.52;;;;;;;;;;4991825;28;20088;-63
2023/06/05 04:56:39;;;;;;;12.95;12.35;;;;;;;;;;4988868;28;20031;-63
2023/06/05 04:59:04;;;;;;;11.73;11.23;;;;;;;;;;4986818;28;20047;-63
2023/06/05 05:01:30;;;;;;;12.60;12.00;;;;;;;;;;4985824;28;20552;-65
2023/06/05 05:03:56;;;;;;;12.25;11.65;;;;;;;;;;4991543;28;20486;-63
2023/06/05 05:06:21;;;;;;;13.85;13.15;;;;;;;;;;4985035;28;20105;-63
2023/06/05 05:08:50;;;;;;;12.57;11.98;;;;;;;;;;4985791;28;20408;-63
2023/06/05 05:11:16;;;;;;;12.30;11.70;;;;;;;;;;4982620;28;20089;-63
2023/06/05 05:13:43;;;;;;;13.25;12.65;;;;;;;;;;4979696;28;20041;-63
2023/06/05 05:16:09;;;;;;;12.05;11.55;;;;;;;;;;4985133;28;20037;-64
2023/06/05 05:18:35;;;;;;;12.40;11.80;;;;;;;;;;4992171;28;20018;-64
2023/06/05 05:21:01;;;;;;;12.10;11.60;;;;;;;;;;4981697;28;20018;-65
2023/06/05 05:23:26;;;;;;;13.23;12.63;;;;;;;;;;4985926;28;20057;-64
2023/06/05 05:25:52;;;;;;;12.50;11.93;;;;;;;;;;4990875;28;20034;-63
2023/06/05 05:28:17;;;;;;;12.33;11.80;;;;;;;;;;4988236;28;20045;-65
2023/06/05 05:30:42;;;;;;;12.02;11.52;;;;;;;;;;4991996;28;20240;-64
2023/06/05 05:33:07;;;;;;;12.00;11.50;;;;;;;;;;4990519;28;20046;-63
2023/06/05 05:35:33;;;;;;;11.60;11.10;;;;;;;;;;4985799;28;20676;-63
2023/06/05 05:37:58;;;;;;;11.73;11.23;;;;;;;;;;4989502;28;20335;-64
2023/06/05 05:40:23;;;;;;;12.53;11.93;;;;;;;;;;4986209;28;20537;-65
2023/06/05 05:42:49;;;;;;;12.50;11.90;;;;;;;;;;4985292;28;20272;-65
2023/06/05 05:45:15;;;;;;;12.70;12.10;;;;;;;;;;4989417;28;20385;-64
2023/06/05 05:47:40;;;;;;;11.57;11.07;;;;;;;;;;4992327;28;20386;-64
2023/06/05 05:50:06;;;;;;;12.60;12.00;;;;;;;;;;4982367;28;20014;-64
2023/06/05 05:52:31;;;;;;;12.50;11.90;;;;;;;;;;4986616;28;20073;-64
2023/06/05 05:54:58;;;;;;;12.37;11.80;;;;;;;;;;4986394;28;20105;-64
2023/06/05 05:57:23;;;;;;;12.10;11.60;;;;;;;;;;4987514;28;20834;-65
2023/06/05 05:59:50;;;;;;;12.10;11.60;;;;;;;;;;4985291;28;20037;-65
2023/06/05 06:02:16;;;;;;;12.03;11.53;;;;;;;;;;4989773;28;20799;-65
2023/06/05 06:04:43;;;;;;;12.10;11.60;;;;;;;;;;4985605;28;20295;-65
2023/06/05 06:07:09;;;;;;;12.23;11.73;;;;;;;;;;4987083;28;20015;-64
2023/06/05 06:09:34;;;;;;;12.10;11.60;;;;;;;;;;4981897;28;20530;-65
2023/06/05 06:12:05;;;;;;;11.90;11.40;;;;;;;;;;4987881;28;20154;-65
2023/06/05 06:14:32;;;;;;;12.05;11.55;;;;;;;;;;4986988;28;20034;-65
2023/06/05 06:16:58;;;;;;;11.95;11.45;;;;;;;;;;4987941;28;20034;-66
2023/06/05 06:19:23;;;;;;;12.80;12.20;;;;;;;;;;4984922;28;20421;-65
2023/06/05 06:21:53;;;;;;;12.35;11.80;;;;;;;;;;4988135;28;20030;-65
2023/06/05 06:24:22;;;;;;;12.60;12.00;;;;;;;;;;4985387;28;20132;-65
2023/06/05 06:26:48;;;;;;;12.40;11.80;;;;;;;;;;4988270;28;20023;-65
2023/06/05 06:29:23;;;;;;;12.52;11.93;;;;;;;;;;4984849;28;20504;-65
2023/06/05 06:31:49;;;;;;;12.75;12.15;;;;;;;;;;4984909;28;20081;-65
2023/06/05 06:34:14;;;;;;;12.93;12.32;;;;;;;;;;4988173;28;20022;-65
2023/06/05 06:36:40;;;;;;;12.60;12.00;;;;;;;;;;4983877;28;20517;-65
2023/06/05 06:39:06;;;;;;;12.13;11.57;;;;;;;;;;4990418;28;20034;-64
2023/06/05 06:41:31;;;;;;;11.85;11.35;;;;;;;;;;4990195;28;20493;-65
2023/06/05 06:43:56;;;;;;;11.93;11.43;;;;;;;;;;4985046;28;20093;-66
2023/06/05 06:46:22;;;;;;;12.35;11.75;;;;;;;;;;4990982;28;20307;-66
2023/06/05 06:48:47;;;;;;;12.18;11.57;;;;;;;;;;4986446;28;20035;-65
2023/06/05 06:51:12;;;;;;;12.13;11.53;;;;;;;;;;4986238;28;20037;-66
2023/06/05 06:53:37;;;;;;;12.02;11.52;;;;;;;;;;4986758;28;20271;-65
2023/06/05 06:56:03;;;;;;;12.70;12.10;;;;;;;;;;4986929;28;20026;-66
2023/06/05 06:58:28;;;;;;;12.57;11.98;;;;;;;;;;4984146;28;20275;-66
2023/06/05 07:00:54;;;;;;;12.32;11.73;;;;;;;;;;4984169;28;20049;-65
2023/06/05 07:03:20;;;;;;;12.27;11.73;;;;;;;;;;4990621;28;20041;-65
2023/06/05 07:05:46;;;;;;;12.00;11.50;;;;;;;;;;4991794;28;20022;-65
2023/06/05 07:08:11;;;;;;;12.33;11.77;;;;;;;;;;4987707;28;20425;-66
2023/06/05 07:10:36;;;;;;;12.00;11.50;;;;;;;;;;4988993;28;20271;-67
2023/06/05 07:13:02;;;;;;;11.45;10.95;;;;;;;;;;4987822;28;20030;-66
2023/06/05 07:15:27;;;;;;;11.60;11.10;;;;;;;;;;4987317;28;20164;-65
2023/06/05 07:17:52;;;;;;;12.30;11.70;;;;;;;;;;4989906;28;20084;-66
2023/06/05 07:20:18;;;;;;;12.40;11.80;;;;;;;;;;4986325;28;20022;-64
2023/06/05 07:22:45;;;;;;;11.98;11.48;;;;;;;;;;4982625;28;20291;-66
2023/06/05 07:25:13;;;;;;;12.00;11.50;;;;;;;;;;4981790;28;20022;-66
2023/06/05 07:27:40;;;;;;;12.13;11.63;;;;;;;;;;4980989;28;20018;-64
2023/06/05 07:30:05;;;;;;;11.50;11.00;;;;;;;;;;4988331;28;20027;-66
2023/06/05 07:32:31;;;;;;;11.93;11.43;;;;;;;;;;4987961;28;20044;-65
2023/06/05 07:34:56;;;;;;;11.82;11.32;;;;;;;;;;4987652;28;20026;-66
2023/06/05 07:37:22;;;;;;;12.10;11.60;;;;;;;;;;4986183;28;20034;-69
2023/06/05 07:39:50;;;;;;;11.90;11.40;;;;;;;;;;4986530;28;20533;-68
2023/06/05 07:42:15;;;;;;;13.10;12.50;;;;;;;;;;4986860;28;20347;-68
2023/06/05 07:44:42;;;;;;;12.50;11.90;;;;;;;;;;4986597;28;20498;-69
2023/06/05 07:47:07;;;;;;;12.90;12.30;;;;;;;;;;4975436;28;20027;-71
2023/06/05 07:49:32;;;;;;;13.73;13.03;;;;;;;;;;4975401;28;20037;-69
2023/06/05 07:51:57;;;;;;;13.48;12.82;;;;;;;;;;4978800;28;20272;-69
2023/06/05 07:54:23;;;;;;;13.77;13.07;;;;;;;;;;4982330;28;20041;-68
2023/06/05 07:56:50;;;;;;;14.48;13.77;;;;;;;;;;4977666;28;20053;-70
2023/06/05 07:59:16;;;;;;;13.57;12.88;;;;;;;;;;4985004;28;20034;-68
2023/06/05 08:01:42;;;;;;;13.18;12.57;;;;;;;;;;4978722;28;20038;-70
2023/06/05 08:04:07;;;;;;;13.40;12.75;;;;;;;;;;4982609;28;20038;-70
2023/06/05 08:06:37;;;;;;;12.63;12.02;;;;;;;;;;4979292;28;20030;-70
2023/06/05 08:09:02;;;;;;;13.20;12.60;;;;;;;;;;4979391;28;20521;-66
2023/06/05 08:11:28;;;;;;;13.55;12.85;;;;;;;;;;4984974;28;20149;-64
2023/06/05 08:13:54;;;;;;;13.48;12.77;;;;;;;;;;4982935;28;20022;-64
2023/06/05 08:16:19;;;;;;;13.57;12.88;;;;;;;;;;4981245;28;20027;-65
2023/06/05 08:18:45;;;;;;;13.00;12.40;;;;;;;;;;4982412;28;20486;-65
2023/06/05 08:21:11;;;;;;;13.63;12.93;;;;;;;;;;4982491;28;20034;-64
2023/06/05 08:23:36;;;;;;;13.70;13.00;;;;;;;;;;4984881;28;20089;-65
2023/06/05 08:26:10;;;;;;;13.82;13.13;;;;;;;;;;4981645;28;20049;-63
2023/06/05 08:28:35;;;;;;;14.02;13.32;;;;;;;;;;4979405;28;20023;-64
2023/06/05 08:31:00;;;;;;;13.88;13.18;;;;;;;;;;4984852;28;20033;-66
2023/06/05 08:33:26;;;;;;;14.02;13.32;;;;;;;;;;4984958;28;20125;-69
2023/06/05 08:35:51;;;;;;;13.82;13.13;;;;;;;;;;4988790;28;20122;-66
2023/06/05 08:38:16;;;;;;;14.00;13.30;;;;;;;;;;4984408;28;20022;-65
2023/06/05 08:40:43;;;;;;;13.65;12.95;;;;;;;;;;4985531;28;20084;-64
2023/06/05 08:43:08;;;;;;;13.93;13.23;;;;;;;;;;4978837;28;20038;-65
2023/06/05 08:45:34;;;;;;;12.88;12.27;;;;;;;;;;4977195;28;20027;-68
2023/06/05 08:48:01;;;;;;;13.07;12.48;;;;;;;;;;4988407;28;20022;-70
2023/06/05 08:50:27;;;;;;;13.70;13.00;;;;;;;;;;4985035;28;20030;-70
2023/06/05 08:52:55;;;;;;;13.25;12.57;;;;;;;;;;4987219;28;20070;-68
2023/06/05 08:55:21;;;;;;;13.88;13.18;;;;;;;;;;4989060;28;20430;-66
2023/06/05 08:57:47;;;;;;;13.45;12.75;;;;;;;;;;4989562;28;20022;-64
2023/06/05 09:00:14;;;;;;;13.73;13.02;;;;;;;;;;4981905;28;20039;-66
2023/06/05 09:02:43;;;;;;;14.02;13.32;;;;;;;;;;4976429;28;20023;-67
2023/06/05 09:05:08;;;;;;;14.98;14.18;;;;;;;;;;4980410;28;20504;-65
2023/06/05 09:07:34;;;;;;;14.20;13.50;;;;;;;;;;4980178;28;20022;-67
2023/06/05 09:09:59;;;;;;;13.57;12.88;;;;;;;;;;4982610;28;20056;-66
2023/06/05 09:12:25;;;;;;;13.68;12.98;;;;;;;;;;4982922;28;20024;-66
2023/06/05 09:14:51;;;;;;;13.57;12.88;;;;;;;;;;4983970;28;20030;-61
2023/06/05 09:17:17;;;;;;;12.93;12.32;;;;;;;;;;4988919;28;20110;-62
2023/06/05 09:19:43;;;;;;;12.25;11.65;;;;;;;;;;4988373;28;20105;-62
2023/06/05 09:22:09;;;;;;;13.18;12.50;;;;;;;;;;4990777;28;20045;-61
2023/06/05 09:24:34;;;;;;;12.20;11.60;;;;;;;;;;4985570;28;20054;-62
2023/06/05 09:26:59;;;;;;;12.88;12.27;;;;;;;;;;4983512;28;20033;-62
2023/06/05 09:29:33;;;;;;;13.00;12.40;;;;;;;;;;4986976;28;20109;-62
2023/06/05 09:32:04;;;;;;;12.20;11.60;;;;;;;;;;4984744;28;20030;-62
2023/06/05 09:34:30;;;;;;;12.20;11.60;;;;;;;;;;4986945;28;20570;-62
2023/06/05 09:36:57;;;;;;;14.32;13.60;;;;;;;;;;4988981;28;20158;-62
2023/06/05 09:39:24;;;;;;;12.75;12.15;;;;;;;;;;4988452;28;20559;-65
2023/06/05 09:41:51;;;;;;;12.35;11.75;;;;;;;;;;4985432;28;20041;-63
2023/06/05 09:44:16;;;;;;;14.23;13.52;;;;;;;;;;4984191;28;20026;-62
2023/06/05 09:46:50;;;;;;;12.27;11.68;;;;;;;;;;4990970;28;20457;-65
2023/06/05 09:49:15;;;;;;;13.60;12.90;;;;;;;;;;4984083;28;20018;-63
2023/06/05 09:51:42;;;;;;;12.13;11.52;;;;;;;;;;4987048;28;20353;-68
2023/06/05 09:54:08;;;;;;;12.93;12.32;;;;;;;;;;4987275;28;20116;-63
2023/06/05 09:56:34;;;;;;;13.23;12.57;;;;;;;;;;4986619;28;20401;-65
2023/06/05 09:59:00;;;;;;;13.20;12.50;;;;;;;;;;4981490;28;21141;-66
2023/06/05 10:01:28;;;;;;;12.02;11.43;;;;;;;;;;4987280;28;20026;-65
2023/06/05 10:03:59;;;;;;;12.20;11.60;;;;;;;;;;4982473;28;20038;-66
2023/06/05 10:06:27;;;;;;;12.77;12.18;;;;;;;;;;4983844;28;20030;-66
2023/06/05 10:08:55;;;;;;;12.57;11.98;;;;;;;;;;4985696;28;20049;-65
2023/06/05 10:11:20;;;;;;;12.10;11.50;;;;;;;;;;4983223;28;20094;-66
2023/06/05 10:13:46;;;;;;;13.48;12.77;;;;;;;;;;4986681;28;20170;-66
2023/06/05 10:16:14;;;;;;;12.75;12.15;;;;;;;;;;4987011;28;20027;-66
2023/06/05 10:18:39;;;;;;;12.90;12.30;;;;;;;;;;4992763;28;20057;-66
2023/06/05 10:21:05;;;;;;;12.20;11.60;;;;;;;;;;4992841;28;20026;-65
2023/06/05 10:23:31;;;;;;;12.32;11.73;;;;;;;;;;4984561;28;20047;-65
2023/06/05 10:25:57;;;;;;;12.55;11.95;;;;;;;;;;4988949;28;20022;-66
2023/06/05 10:28:41;;;;;;;12.85;12.25;;;;;;;;;;4986702;28;20090;-66
2023/06/05 10:31:17;;;;;;;12.13;11.52;;;;;;;;;;4984113;28;20019;-67
2023/06/05 10:34:01;;;;;;;11.95;11.35;;;;;;;;;;4991151;28;20062;-66
2023/06/05 10:36:40;;;;;;;12.57;11.98;;;;;;;;;;4985418;28;20355;-66
2023/06/05 10:39:09;;;;;;;12.20;11.60;;;;;;;;;;4984859;28;20034;-66
2023/06/05 10:41:35;;;;;;;12.57;11.98;;;;;;;;;;4983655;28;20544;-65
2023/06/05 10:44:00;;;;;;;12.00;11.40;;;;;;;;;;4991738;28;20092;-65
2023/06/05 10:46:32;;;;;;;12.00;11.40;;;;;;;;;;4985987;28;20101;-65
2023/06/05 10:49:15;;;;;;;11.75;11.25;;;;;;;;;;4978331;28;20019;-66
2023/06/05 10:51:42;;;;;;;11.80;11.20;;;;;;;;;;4984855;28;20018;-66
2023/06/05 10:54:08;;;;;;;12.18;11.57;;;;;;;;;;4987391;28;20028;-66
2023/06/05 10:56:52;;;;;;;12.07;11.48;;;;;;;;;;4986895;28;20537;-66
2023/06/05 10:59:20;;;;;;;13.82;13.13;;;;;;;;;;4985583;28;20022;-66
2023/06/05 11:02:08;;;;;;;12.95;12.35;;;;;;;;;;4986126;28;20042;-66
2023/06/05 11:04:46;;;;;;;12.25;11.65;;;;;;;;;;4988649;28;20026;-65
2023/06/05 11:07:22;;;;;;;13.27;12.57;;;;;;;;;;4988539;28;20064;-66
2023/06/05 11:10:01;;;;;;;12.52;11.93;;;;;;;;;;4986305;28;20101;-65
2023/06/05 11:12:27;;;;;;;12.45;11.85;;;;;;;;;;4988009;28;20533;-66
2023/06/05 11:14:52;;;;;;;11.80;11.30;;;;;;;;;;4989150;28;20117;-66
2023/06/05 11:17:31;;;;;;;12.70;12.10;;;;;;;;;;4979704;28;20776;-66
2023/06/05 11:19:57;;;;;;;11.90;11.30;;;;;;;;;;4978370;28;20475;-65
2023/06/05 11:22:23;;;;;;;13.52;12.82;;;;;;;;;;4990183;28;20101;-66
2023/06/05 11:25:06;;;;;;;11.45;10.95;;;;;;;;;;4986737;28;20026;-65
2023/06/05 11:27:42;;;;;;;12.75;12.15;;;;;;;;;;4984133;28;20053;-67
2023/06/05 11:30:15;;;;;;;11.63;11.10;;;;;;;;;;4981170;28;20492;-67
2023/06/05 11:32:40;;;;;;;12.65;12.05;;;;;;;;;;4983093;28;20023;-68
2023/06/05 11:35:08;;;;;;;13.25;12.55;;;;;;;;;;4984692;28;20042;-67
2023/06/05 11:37:34;;;;;;;13.23;12.52;;;;;;;;;;4987499;28;20113;-67
2023/06/05 11:39:59;;;;;;;13.00;12.40;;;;;;;;;;4983316;28;20105;-67
2023/06/05 11:42:25;;;;;;;12.60;12.00;;;;;;;;;;4982385;28;20094;-65
2023/06/05 11:44:50;;;;;;;13.23;12.52;;;;;;;;;;4991750;28;20054;-66
2023/06/05 11:47:25;;;;;;;12.02;11.43;;;;;;;;;;4985995;28;20022;-66
2023/06/05 11:49:51;;;;;;;14.10;13.40;;;;;;;;;;4989270;28;20038;-66
2023/06/05 11:52:20;;;;;;;12.40;11.80;;;;;;;;;;4990326;28;20489;-65
2023/06/05 11:54:53;;;;;;;12.13;11.52;;;;;;;;;;4986086;28;20061;-63
2023/06/05 11:57:18;;;;;;;12.75;12.15;;;;;;;;;;4987480;28;20034;-67
2023/06/05 11:59:44;;;;;;;13.55;12.85;;;;;;;;;;4987546;28;20026;-66
2023/06/05 12:02:10;;;;;;;12.82;12.23;;;;;;;;;;4986593;28;20109;-66
2023/06/05 12:04:38;;;;;;;12.82;12.23;;;;;;;;;;4990012;28;20904;-65
2023/06/05 12:07:04;;;;;;;13.05;12.43;;;;;;;;;;4987334;28;20030;-66
2023/06/05 12:09:29;;;;;;;12.40;11.80;;;;;;;;;;4987846;28;20433;-67
2023/06/05 12:12:08;;;;;;;12.32;11.73;;;;;;;;;;4989746;28;20033;-66
2023/06/05 12:14:33;;;;;;;12.80;12.20;;;;;;;;;;4983578;28;20061;-66
2023/06/05 12:16:59;;;;;;;12.23;11.63;;;;;;;;;;4989406;28;20504;-66
2023/06/05 12:19:24;;;;;;;12.52;11.93;;;;;;;;;;4985372;28;20698;-67
2023/06/05 12:21:50;;;;;;;12.95;12.35;;;;;;;;;;4986919;28;20117;-67
2023/06/05 12:24:28;;;;;;;13.93;13.23;;;;;;;;;;4987220;28;20125;-67
2023/06/05 12:26:53;;;;;;;12.57;11.98;;;;;;;;;;4984303;28;20465;-67
2023/06/05 12:29:20;;;;;;;12.70;12.10;;;;;;;;;;4988054;28;20025;-67
2023/06/05 12:31:45;;;;;;;12.85;12.25;;;;;;;;;;4986084;28;20030;-65
2023/06/05 12:34:11;;;;;;;12.75;12.15;;;;;;;;;;4985830;28;20086;-66
2023/06/05 12:36:43;;;;;;;12.23;11.63;;;;;;;;;;4987520;28;20026;-67
2023/06/05 12:39:12;;;;;;;12.45;11.85;;;;;;;;;;4987499;28;20026;-67
2023/06/05 12:41:37;;;;;;;12.02;11.43;;;;;;;;;;4987835;28;20157;-65
2023/06/05 12:44:04;;;;;;;11.77;11.27;;;;;;;;;;4986448;28;20126;-67
2023/06/05 12:46:30;;;;;;;12.15;11.55;;;;;;;;;;4993538;28;20010;-66
2023/06/05 12:48:57;;;;;;;13.07;12.43;;;;;;;;;;4991622;28;20097;-66
2023/06/05 12:51:23;;;;;;;12.18;11.57;;;;;;;;;;4987892;28;20025;-66
2023/06/05 12:53:48;;;;;;;12.82;12.23;;;;;;;;;;4986434;28;20382;-66
2023/06/05 12:56:14;;;;;;;12.43;11.82;;;;;;;;;;4983802;28;20524;-66
2023/06/05 12:58:39;;;;;;;12.18;11.57;;;;;;;;;;4987192;28;20037;-66
2023/06/05 13:01:04;;;;;;;12.95;12.35;;;;;;;;;;4985097;28;20102;-66
2023/06/05 13:03:30;;;;;;;12.02;11.43;;;;;;;;;;4984197;28;20046;-67
2023/06/05 13:05:55;;;;;;;12.38;11.77;;;;;;;;;;4984128;28;20011;-65
2023/06/05 13:08:21;;;;;;;13.48;12.77;;;;;;;;;;4985989;28;20030;-66
2023/06/05 13:10:46;;;;;;;12.27;11.68;;;;;;;;;;4987389;28;20084;-63
2023/06/05 13:13:11;;;;;;;11.75;11.23;;;;;;;;;;4984506;28;20019;-65
2023/06/05 13:15:38;;;;;;;12.20;11.60;;;;;;;;;;4987285;28;20014;-65
2023/06/05 13:18:03;;;;;;;12.43;11.82;;;;;;;;;;4991337;28;20474;-65
2023/06/05 13:20:28;;;;;;;11.68;11.18;;;;;;;;;;4986455;28;20030;-64
2023/06/05 13:22:54;;;;;;;12.00;11.40;;;;;;;;;;4988748;28;20042;-63
2023/06/05 13:25:19;;;;;;;12.30;11.70;;;;;;;;;;4983249;28;20018;-63
2023/06/05 13:27:44;;;;;;;12.85;12.25;;;;;;;;;;4986960;28;20026;-64
2023/06/05 13:30:10;;;;;;;12.38;11.77;;;;;;;;;;4986665;28;20618;-64
2023/06/05 13:32:38;;;;;;;12.20;11.60;;;;;;;;;;4989196;28;20509;-64
2023/06/05 13:35:04;;;;;;;12.25;11.65;;;;;;;;;;4986706;28;20026;-65
2023/06/05 13:37:29;;;;;;;11.85;11.27;;;;;;;;;;4991320;28;20022;-64
2023/06/05 13:39:55;;;;;;;12.02;11.43;;;;;;;;;;4984486;28;20029;-62
2023/06/05 13:42:20;;;;;;;12.40;11.80;;;;;;;;;;4993643;28;20801;-62
2023/06/05 13:44:45;;;;;;;12.40;11.80;;;;;;;;;;4991986;28;20025;-62
2023/06/05 13:47:10;;;;;;;11.90;11.40;;;;;;;;;;4990612;28;20454;-62
2023/06/05 13:49:36;;;;;;;12.07;11.48;;;;;;;;;;4992663;28;20264;-63
2023/06/05 13:52:01;;;;;;;12.13;11.52;;;;;;;;;;4990945;28;20026;-64
2023/06/05 13:54:27;;;;;;;12.65;12.05;;;;;;;;;;4991915;28;20161;-62
2023/06/05 13:56:53;;;;;;;12.27;11.68;;;;;;;;;;4990411;28;20030;-62
2023/06/05 13:59:18;;;;;;;12.50;11.90;;;;;;;;;;4985142;28;20038;-63
2023/06/05 14:01:43;;;;;;;12.65;12.05;;;;;;;;;;4991487;28;20054;-62
2023/06/05 14:04:09;;;;;;;12.30;11.70;;;;;;;;;;4990040;28;20026;-62
2023/06/05 14:06:38;;;;;;;11.80;11.30;;;;;;;;;;4989520;28;20007;-62
2023/06/05 14:09:03;;;;;;;12.55;11.95;;;;;;;;;;4983850;28;20033;-61
2023/06/05 14:11:28;;;;;;;12.32;11.73;;;;;;;;;;4984496;28;20018;-62
2023/06/05 14:13:54;;;;;;;11.48;10.98;;;;;;;;;;4990406;28;20026;-62